• Join FlightAware (Why Join?)
  • Login
  • US Flag 
08:25AM EDT


 

Airport Tracker/Info


-or-


 

Live Flight TrackerFlight Track Log ✈ UPS376 ✈ 01-Feb-2014 ✈ KMIA - MHLM / SAP

Flight Track Log - Related Links

Times and Time Zones

All times are in EST time to prevent confusion due to time zone crossing. See the UPS376 flight status page for this flight to view local times or setup timezone preferences in your user account.

Time Position Orientation Groundspeed Altitude Reporting Facility
EST Latitude Longitude Course Direction KTS MPH feet Rate Location/Type
11:00AM 25.5736 -80.2267 202° Southwest 284 327 9,200  Level Miami Center
11:01AM 25.5189 -80.2506 202° Southwest 288 331 11,800 3,480 Climbing Miami Center
11:01AM 25.5039 -80.2617 214° Southwest 302 348 12,400 3,060 Climbing Miami Center
11:02AM 25.4447 -80.2897 203° Southwest 342 394 14,900 1,920 Climbing Miami Center
11:03AM 25.3517 -80.3378 205° Southwest 348 400 16,000 1,860 Climbing Miami Center
11:04AM 25.2631 -80.3811 204° Southwest 358 412 18,700 3,000 Climbing Miami Center
11:05AM 25.1656 -80.4311 205° Southwest 370 426 22,100 3,420 Climbing Miami Center
11:06AM 25.0658 -80.4969 211° Southwest 395 455 25,600 3,240 Climbing Miami Center
11:07AM 24.9661 -80.5653 212° Southwest 415 478 28,600 2,820 Climbing Miami Center
11:08AM 24.8639 -80.6353 212° Southwest 430 495 31,300 2,940 Climbing Miami Center
11:09AM 24.7642 -80.7031 212° Southwest 435 501 34,500 1,800 Climbing Miami Center
11:10AM 24.6661 -80.7733 213° Southwest 430 495 34,900 240 Climbing Miami Center
11:11AM 24.5683 -80.8386 211° Southwest 424 488 35,000  Climbing Miami Center
11:12AM 24.4683 -80.9039 211° Southwest 418 481 35,000  Level Miami Center
11:13AM 24.3706 -80.9692 211° Southwest 418 481 35,000  Level Miami Center
11:14AM 24.2706 -81.0367 212° Southwest 418 481 35,000  Level Miami Center
11:15AM 24.1725 -81.0992 210° Southwest 418 481 35,000  Level Miami Center
11:16AM 24.0767 -81.1711 214° Southwest 418 481 35,000  Level Miami Center
11:18AM 23.9389 -81.2656 216° Southwest  Level FlightAware Approximate
11:25AM 23.3142 -81.7619 216° Southwest  Level FlightAware Approximate
11:26AM 23.2248 -81.8324 216° Southwest  Level FlightAware Approximate
11:27AM 23.1354 -81.9028 216° Southwest  Level FlightAware Approximate
11:28AM 23.0460 -81.9732 216° Southwest  Level FlightAware Approximate
11:29AM 22.9565 -82.0434 216° Southwest  Level FlightAware Approximate
11:30AM 22.8670 -82.1135 216° Southwest  Level FlightAware Approximate
11:31AM 22.7775 -82.1836 216° Southwest  Level FlightAware Approximate
11:32AM 22.6880 -82.2535 216° Southwest  Level FlightAware Approximate
11:33AM 22.5984 -82.3234 216° Southwest  Level FlightAware Approximate
11:34AM 22.5088 -82.3932 216° Southwest  Level FlightAware Approximate
11:35AM 22.4199 -82.4640 216° Southwest  Level FlightAware Approximate
11:36AM 22.3310 -82.5348 216° Southwest  Level FlightAware Approximate
11:37AM 22.2421 -82.6056 216° Southwest  Level FlightAware Approximate
11:38AM 22.1532 -82.6762 216° Southwest  Level FlightAware Approximate
11:39AM 22.0643 -82.7468 216° Southwest  Level FlightAware Approximate
11:40AM 21.9753 -82.8172 216° Southwest  Level FlightAware Approximate
11:41AM 21.8863 -82.8876 216° Southwest  Level FlightAware Approximate
11:42AM 21.7973 -82.9579 216° Southwest  Level FlightAware Approximate
11:43AM 21.7082 -83.0281 216° Southwest  Level FlightAware Approximate
11:44AM 21.6191 -83.0983 216° Southwest  Level FlightAware Approximate
11:45AM 21.5300 -83.1683 216° Southwest  Level FlightAware Approximate
11:46AM 21.4409 -83.2382 216° Southwest  Level FlightAware Approximate
11:47AM 21.3510 -83.3069 214° Southwest  Level FlightAware Approximate
11:48AM 21.2596 -83.3734 214° Southwest  Level FlightAware Approximate
11:49AM 21.1690 -83.4410 216° Southwest  Level FlightAware Approximate
11:50AM 21.0799 -83.5109 216° Southwest  Level FlightAware Approximate
11:51AM 20.9908 -83.5806 216° Southwest  Level FlightAware Approximate
11:52AM 20.9016 -83.6503 216° Southwest  Level FlightAware Approximate
11:53AM 20.8125 -83.7199 216° Southwest  Level FlightAware Approximate
11:54AM 20.7231 -83.7892 216° Southwest  Level FlightAware Approximate
11:55AM 20.6336 -83.8583 216° Southwest  Level FlightAware Approximate
11:56AM 20.5442 -83.9274 216° Southwest  Level FlightAware Approximate
11:57AM 20.4547 -83.9964 216° Southwest  Level FlightAware Approximate
11:58AM 20.3668 -84.0673 215° Southwest  Level FlightAware Approximate
11:59AM 20.2769 -84.1356 215° Southwest  Level FlightAware Approximate
12:00PM 20.1869 -84.2038 215° Southwest  Level FlightAware Approximate
12:01PM 20.0970 -84.2719 215° Southwest  Level FlightAware Approximate
12:02PM 20.0070 -84.3399 215° Southwest  Level FlightAware Approximate
12:03PM 19.9170 -84.4079 215° Southwest  Level FlightAware Approximate
12:04PM 19.8269 -84.4758 215° Southwest  Level FlightAware Approximate
12:05PM 19.7369 -84.5436 215° Southwest  Level FlightAware Approximate
12:06PM 19.6468 -84.6113 215° Southwest  Level FlightAware Approximate
12:07PM 19.5567 -84.6790 215° Southwest  Level FlightAware Approximate
12:08PM 19.4665 -84.7466 215° Southwest  Level FlightAware Approximate
12:09PM 19.3764 -84.8141 215° Southwest  Level FlightAware Approximate
12:10PM 19.2862 -84.8815 215° Southwest  Level FlightAware Approximate
12:11PM 19.1959 -84.9489 215° Southwest  Level FlightAware Approximate
12:12PM 19.1057 -85.0162 215° Southwest  Level FlightAware Approximate
12:13PM 19.0154 -85.0834 215° Southwest  Level FlightAware Approximate
12:14PM 18.9252 -85.1505 215° Southwest  Level FlightAware Approximate
12:15PM 18.8349 -85.2176 215° Southwest  Level FlightAware Approximate
12:16PM 18.7445 -85.2846 215° Southwest  Level FlightAware Approximate
12:17PM 18.6542 -85.3515 215° Southwest  Level FlightAware Approximate
12:18PM 18.5638 -85.4183 215° Southwest  Level FlightAware Approximate
12:19PM 18.4734 -85.4851 215° Southwest  Level FlightAware Approximate
12:20PM 18.3829 -85.5518 215° Southwest  Level FlightAware Approximate
12:21PM 18.2925 -85.6185 215° Southwest  Level FlightAware Approximate
12:22PM 18.2020 -85.6850 215° Southwest  Level FlightAware Approximate
12:23PM 18.1115 -85.7515 215° Southwest  Level FlightAware Approximate
12:24PM 18.0210 -85.8180 215° Southwest  Level FlightAware Approximate
12:25PM 17.9304 -85.8843 215° Southwest  Level FlightAware Approximate
12:26PM 17.8399 -85.9506 215° Southwest  Level FlightAware Approximate
12:27PM 17.7493 -86.0169 215° Southwest  Level FlightAware Approximate
12:28PM 17.6587 -86.0830 215° Southwest  Level FlightAware Approximate
12:29PM 17.5680 -86.1491 215° Southwest  Level FlightAware Approximate
12:30PM 17.4774 -86.2151 215° Southwest  Level FlightAware Approximate
12:31PM 17.3867 -86.2811 215° Southwest  Level FlightAware Approximate
12:32PM 17.2960 -86.3470 215° Southwest  Level FlightAware Approximate
12:33PM 17.2053 -86.4128 215° Southwest  Level FlightAware Approximate
12:34PM 17.0969 -86.4304 187° South  Level FlightAware Approximate
12:35PM 16.9874 -86.4450 187° South  Level FlightAware Approximate
12:36PM 16.8786 -86.4643 191° South  Level FlightAware Approximate
12:37PM 16.7687 -86.4742 184° South  Level FlightAware Approximate
12:38PM 16.6586 -86.4827 184° South  Level FlightAware Approximate
12:39PM 16.5488 -86.4946 186° South  Level FlightAware Approximate
12:40PM 16.4404 -86.5149 193° South  Level FlightAware Approximate
12:41PM 16.3302 -86.5167 180° South  Level FlightAware Approximate
12:42PM 16.2623 -86.5903 237° Southwest  Level FlightAware Approximate
12:43PM 16.2021 -86.6866 237° Southwest  Level FlightAware Approximate
12:44PM 16.1419 -86.7830 237° Southwest  Level FlightAware Approximate
12:45PM 16.0829 -86.8800 239° Southwest  Level FlightAware Approximate
12:46PM 16.0260 -86.9784 237° Southwest  Level FlightAware Approximate
12:47PM 15.9659 -87.0747 237° Southwest  Level FlightAware Approximate
12:48PM 15.9057 -87.1710 237° Southwest  Level FlightAware Approximate
12:49PM 15.8461 -87.2676 238° Southwest  Level FlightAware Approximate
12:50PM 15.7914 -87.3671 243° Southwest  Level FlightAware Approximate
12:51PM 15.7322 -87.4638 237° Southwest  Level FlightAware Approximate
12:52PM 15.6713 -87.5594 237° Southwest  Level FlightAware Approximate
12:53PM 15.6086 -87.6538 235° Southwest  Level FlightAware Approximate
12:54PM 15.5498 -87.7505 243° Southwest  Level FlightAware Approximate
12:55PM 15.4938 -87.8491 238° Southwest  Level FlightAware Approximate
12:56PM 15.4526 -87.9236 270° West  Level Estimated
12:57PM 15.4526 -87.9236 270° West  Level Estimated
12:58PM 15.4526 -87.9236 270° West  Level Estimated
12:59PM 15.4526 -87.9236 270° West  Level Estimated
01:00PM 15.4526 -87.9236 270° West  Level Estimated
01:01PM 15.4526 -87.9236 270° West  Level Estimated
01:02PM 15.4526 -87.9236 270° West  Level Estimated
01:03PM 15.4526 -87.9236 270° West  Level Estimated
01:04PM 15.4526 -87.9236 270° West  Level Estimated
01:05PM 15.4526 -87.9236 270° West  Level Estimated
01:06PM 15.4526 -87.9236 270° West  Level Estimated
01:07PM 15.4526 -87.9236 270° West  Level Estimated
01:08PM 15.4526 -87.9236 270° West  Level Estimated
01:09PM 15.4526 -87.9236 270° West  Level Estimated
01:10PM 15.4526 -87.9236 270° West  Level Estimated